createdAt,value
2023-03-04T00:05:47.609Z,20.80
2023-03-04T00:15:48.176Z,20.50
2023-03-04T00:25:47.989Z,21.70
2023-03-04T00:35:47.994Z,22.00
2023-03-04T00:45:47.974Z,20.70
2023-03-04T00:55:48.213Z,22.10
2023-03-04T01:05:48.173Z,24.10
2023-03-04T01:15:48.139Z,20.40
2023-03-04T01:25:48.101Z,22.60
2023-03-04T01:35:48.132Z,23.80
2023-03-04T01:45:48.384Z,22.90
2023-03-04T01:55:48.318Z,23.40
2023-03-04T02:05:48.320Z,20.30
2023-03-04T02:15:48.111Z,22.90
2023-03-04T02:25:48.044Z,21.80
2023-03-04T02:35:48.159Z,19.30
2023-03-04T02:45:48.192Z,22.00
2023-03-04T02:55:48.178Z,20.20
2023-03-04T03:05:48.145Z,20.40
2023-03-04T03:15:50.078Z,22.50
2023-03-04T03:25:48.075Z,19.60
2023-03-04T03:35:48.081Z,18.10
2023-03-04T03:45:48.074Z,19.20
2023-03-04T03:55:47.993Z,19.40
2023-03-04T04:05:48.031Z,18.80
2023-03-04T04:15:47.512Z,19.00
2023-03-04T04:25:47.392Z,18.90
2023-03-04T04:35:47.323Z,17.80
2023-03-04T04:45:47.286Z,17.20
2023-03-04T05:05:47.037Z,18.10
2023-03-04T05:15:46.958Z,16.80
2023-03-04T05:25:47.071Z,15.30
2023-03-04T05:35:46.685Z,15.90
2023-03-04T05:55:46.305Z,15.70
2023-03-04T06:05:46.144Z,16.60
2023-03-04T06:15:46.003Z,16.30
2023-03-04T06:35:45.632Z,13.70
2023-03-04T06:45:45.485Z,13.70
2023-03-04T06:55:45.454Z,13.50
2023-03-04T07:05:45.389Z,12.20
2023-03-04T07:15:45.553Z,11.60
2023-03-04T07:25:45.233Z,10.90
2023-03-04T07:35:45.353Z,10.20
2023-03-04T07:45:45.382Z,8.70
2023-03-04T07:55:45.494Z,7.20
2023-03-04T08:05:45.711Z,7.20
2023-03-04T08:15:45.995Z,6.40
2023-03-04T08:25:46.317Z,7.40
2023-03-04T08:35:46.970Z,8.30
2023-03-04T08:45:47.722Z,6.90
2023-03-04T08:55:48.630Z,6.30
2023-03-04T09:05:49.631Z,6.30
2023-03-04T09:15:50.826Z,8.00
2023-03-04T09:25:51.762Z,9.20
2023-03-04T09:35:52.970Z,10.50
2023-03-04T09:45:54.130Z,10.20
2023-03-04T09:55:55.224Z,10.60
2023-03-04T10:05:56.288Z,11.70
2023-03-04T10:15:57.398Z,11.50
2023-03-04T10:25:58.225Z,11.70
2023-03-04T10:35:59.189Z,11.50
2023-03-04T10:46:00.118Z,11.60
2023-03-04T10:56:00.707Z,10.20
2023-03-04T11:06:01.504Z,11.20
2023-03-04T11:16:03.352Z,9.60
2023-03-04T11:26:03.222Z,11.50
2023-03-04T11:36:03.981Z,12.90
2023-03-04T11:46:04.818Z,11.70
2023-03-04T11:56:05.321Z,8.90
2023-03-04T12:06:06.047Z,7.80
2023-03-04T12:16:06.894Z,10.70
2023-03-04T12:26:07.588Z,10.70
2023-03-04T12:36:08.269Z,11.00
2023-03-04T12:46:09.026Z,9.20
2023-03-04T12:56:10.432Z,8.90
2023-03-04T13:06:10.544Z,9.80
2023-03-04T13:16:11.424Z,8.40
2023-03-04T13:26:12.130Z,8.20
2023-03-04T13:36:13.210Z,9.30
2023-03-04T13:46:14.027Z,6.30
2023-03-04T13:56:14.481Z,6.60
2023-03-04T14:06:15.316Z,6.40
2023-03-04T14:16:16.202Z,5.30
2023-03-04T14:26:17.217Z,5.90
2023-03-04T14:36:17.770Z,5.70
2023-03-04T14:46:18.676Z,6.40
2023-03-04T14:56:19.388Z,6.60
2023-03-04T15:06:20.418Z,7.10
2023-03-04T15:16:21.163Z,6.70
2023-03-04T15:26:21.698Z,7.60
2023-03-04T15:36:22.478Z,6.40
2023-03-04T15:46:23.551Z,7.90
2023-03-04T15:56:24.465Z,6.30
2023-03-04T16:06:24.717Z,7.50
2023-03-04T16:26:25.878Z,7.40
2023-03-04T16:36:26.832Z,7.40
2023-03-04T16:46:31.740Z,7.70
2023-03-04T16:56:27.789Z,7.30
2023-03-04T17:06:28.362Z,7.90
2023-03-04T17:16:29.190Z,8.60
2023-03-04T17:26:29.713Z,8.20
2023-03-04T17:36:30.279Z,8.90
2023-03-04T17:46:30.989Z,9.40
2023-03-04T17:56:31.441Z,10.00
2023-03-04T18:06:32.229Z,11.20
2023-03-04T18:16:33.189Z,9.90
2023-03-04T18:26:33.189Z,12.60
2023-03-04T18:36:33.826Z,10.80
2023-03-04T18:46:35.308Z,8.40
2023-03-04T18:56:35.031Z,5.10
2023-03-04T19:06:35.412Z,4.50
2023-03-04T19:16:35.831Z,4.00
2023-03-04T19:26:36.278Z,4.10
2023-03-04T19:36:36.462Z,4.10
2023-03-04T19:46:36.874Z,4.30
2023-03-04T19:56:37.320Z,4.50
2023-03-04T20:06:37.635Z,4.40
2023-03-04T20:16:38.029Z,4.50
2023-03-04T20:26:38.019Z,4.90
2023-03-04T20:36:38.523Z,4.60
2023-03-04T20:46:39.041Z,4.80
2023-03-04T20:56:39.566Z,4.80
2023-03-04T21:06:39.796Z,5.20
2023-03-04T21:16:39.971Z,5.10
2023-03-04T21:26:40.216Z,5.10
2023-03-04T21:36:40.604Z,5.00
2023-03-04T21:46:40.847Z,5.70
2023-03-04T21:56:41.065Z,5.30
2023-03-04T22:26:41.865Z,5.30
2023-03-04T22:36:42.169Z,5.00
2023-03-04T22:46:42.453Z,5.40
2023-03-04T22:56:42.859Z,5.60
2023-03-04T23:06:43.047Z,4.90
2023-03-04T23:16:43.466Z,5.40
2023-03-04T23:26:43.668Z,5.40
2023-03-04T23:36:44.037Z,4.80
2023-03-04T23:46:44.335Z,4.30
2023-03-04T23:56:44.622Z,4.30
